This is the latest recevied weather packets stored in our database for station/object OE-3055. If no packets are shown the sender has not sent any weather packets the latest 10 day(s).
| Time | Temp. | Humidity | Pressure | Rain* | Wind** | Luminosity | Snow |
|---|---|---|---|---|---|---|---|
| 1787807469 | 16.67° C | 88% | 1017.3 hPa | - | - | - | - |
| 1787805668 | 16.67° C | 87% | 1017.2 hPa | - | - | - | - |
| 1787803869 | 17.22° C | 83% | 1017.1 hPa | - | - | - | - |
| 1787800269 | 17.78° C | 83% | 1016.9 hPa | - | - | - | - |
| 1787798468 | 17.78° C | 84% | 1016.9 hPa | - | - | - | - |
| 1787796669 | 17.78° C | 84% | 1016.9 hPa | - | - | - | - |
| 1787794869 | 17.78° C | 84% | 1017 hPa | - | - | - | - |
| 1787793069 | 17.78° C | 82% | 1016.8 hPa | - | - | - | - |
| 1787791269 | 17.78° C | 82% | 1016.9 hPa | - | - | - | - |
| 1787789468 | 18.33° C | 81% | 1016.7 hPa | - | - | - | - |
| 1787787669 | 18.89° C | 79% | 1016.5 hPa | - | - | - | - |
| 1787784069 | 19.44° C | 77% | 1016.5 hPa | - | - | - | - |
| 1787782270 | 19.44° C | 76% | 1017.5 hPa | - | - | - | - |
| 1787780470 | 20° C | 75% | 1017.4 hPa | - | - | - | - |
| 1787778669 | 20° C | 76% | 1017.4 hPa | - | - | - | - |
| 1787776869 | 20° C | 75% | 1017.4 hPa | - | - | - | - |
| 1787775070 | 20° C | 74% | 1017.3 hPa | - | - | - | - |
| 1787773269 | 20.56° C | 73% | 1017.2 hPa | - | - | - | - |
| 1787771469 | 21.11° C | 70% | 1017 hPa | - | - | - | - |
| 1787769669 | 21.67° C | 67% | 1016.9 hPa | - | - | - | - |
| 1787767870 | 22.22° C | 63% | 1016.7 hPa | - | - | - | - |
| 1787766069 | 22.22° C | 62% | 1016.6 hPa | - | - | - | - |
| 1787764269 | 22.78° C | 64% | 1016.6 hPa | - | - | - | - |
| 1787762469 | 23.33° C | 65% | 1016.4 hPa | - | - | - | - |
| 1787760669 | 24.44° C | 59% | 1016 hPa | - | - | - | - |
* Rain since midnight (hover to see other rain measurements)
** Current wind speed in m/s (hover to see current wind gust speed)